createdAt,value
2018-11-14T00:02:34.448Z,9.56
2018-11-14T00:05:40.106Z,9.46
2018-11-14T00:08:45.581Z,9.40
2018-11-14T00:11:51.010Z,9.48
2018-11-14T00:14:57.441Z,9.49
2018-11-14T00:18:02.904Z,9.53
2018-11-14T00:21:08.400Z,9.47
2018-11-14T00:24:14.153Z,9.51
2018-11-14T00:27:19.570Z,9.48
2018-11-14T00:30:26.006Z,9.45
2018-11-14T00:33:31.451Z,9.45
2018-11-14T00:36:36.838Z,9.47
2018-11-14T00:39:42.316Z,9.45
2018-11-14T00:42:48.466Z,9.40
2018-11-14T00:45:53.935Z,9.40
2018-11-14T00:48:59.409Z,9.40
2018-11-14T00:52:05.502Z,9.43
2018-11-14T00:55:13.987Z,9.38
2018-11-14T00:58:19.353Z,9.30
2018-11-14T01:01:24.944Z,9.29
2018-11-14T01:04:30.838Z,9.28
2018-11-14T01:07:36.334Z,9.27
2018-11-14T01:10:41.745Z,9.34
2018-11-14T01:13:47.289Z,9.29
2018-11-14T01:16:52.715Z,9.26
2018-11-14T01:19:58.163Z,9.16
2018-11-14T01:23:03.712Z,9.15
2018-11-14T01:26:09.772Z,9.12
2018-11-14T01:29:15.138Z,9.08
2018-11-14T01:32:20.591Z,9.17
2018-11-14T01:35:26.172Z,9.15
2018-11-14T01:38:31.607Z,9.20
2018-11-14T01:41:37.158Z,9.20
2018-11-14T01:44:42.622Z,9.24
2018-11-14T01:47:48.049Z,9.23
2018-11-14T01:50:53.475Z,9.14
2018-11-14T01:53:58.966Z,9.19
2018-11-14T01:57:04.410Z,9.24
2018-11-14T02:00:13.044Z,9.27
2018-11-14T02:03:18.462Z,9.22
2018-11-14T02:06:24.174Z,9.14
2018-11-14T02:09:29.622Z,9.08
2018-11-14T02:12:35.411Z,9.09
2018-11-14T02:15:40.922Z,9.06
2018-11-14T02:18:46.305Z,8.98
2018-11-14T02:21:51.677Z,9.01
2018-11-14T02:24:57.218Z,8.91
2018-11-14T02:28:02.649Z,8.88
2018-11-14T02:31:08.398Z,8.86
2018-11-14T02:34:13.878Z,8.76
2018-11-14T02:37:19.482Z,8.85
2018-11-14T02:40:24.945Z,8.76
2018-11-14T02:43:30.458Z,8.75
2018-11-14T02:46:35.813Z,8.76
2018-11-14T02:49:41.228Z,8.73
2018-11-14T02:52:46.721Z,8.71
2018-11-14T02:56:06.210Z,8.61
2018-11-14T02:59:11.566Z,8.57
2018-11-14T03:02:17.095Z,8.46
2018-11-14T03:05:22.625Z,8.53
2018-11-14T03:08:28.110Z,8.49
2018-11-14T03:11:33.495Z,8.51
2018-11-14T03:14:38.924Z,8.46
2018-11-14T03:17:44.373Z,8.47
2018-11-14T03:20:49.819Z,8.46
2018-11-14T03:23:55.396Z,8.44
2018-11-14T03:27:00.826Z,8.43
2018-11-14T03:30:08.929Z,8.40
2018-11-14T03:33:14.631Z,8.34
2018-11-14T03:36:20.997Z,8.37
2018-11-14T03:39:26.673Z,8.37
2018-11-14T03:42:32.062Z,8.37
2018-11-14T03:45:37.526Z,8.32
2018-11-14T03:48:43.102Z,8.35
2018-11-14T03:51:48.554Z,8.36
2018-11-14T03:54:54.011Z,8.30
2018-11-14T03:57:59.438Z,8.37
2018-11-14T04:01:06.091Z,8.32
2018-11-14T04:04:11.625Z,8.33
2018-11-14T04:07:17.070Z,8.30
2018-11-14T04:10:22.545Z,8.30
2018-11-14T04:13:28.117Z,8.32
2018-11-14T04:16:33.613Z,8.36
2018-11-14T04:19:38.998Z,8.35
2018-11-14T04:22:44.670Z,8.35
2018-11-14T04:25:50.115Z,8.45
2018-11-14T04:28:55.619Z,8.44
2018-11-14T04:32:01.201Z,8.37
2018-11-14T04:35:09.418Z,8.44
2018-11-14T04:38:14.835Z,8.45
2018-11-14T04:41:20.260Z,8.56
2018-11-14T04:44:25.734Z,8.63
2018-11-14T04:47:31.304Z,8.55
2018-11-14T04:50:36.690Z,8.53
2018-11-14T04:53:42.118Z,8.63
2018-11-14T04:56:47.542Z,8.65
2018-11-14T04:59:53.350Z,8.59
2018-11-14T05:02:59.327Z,8.60
2018-11-14T05:06:05.405Z,8.65
2018-11-14T05:09:12.779Z,8.65
2018-11-14T05:12:18.214Z,8.62
2018-11-14T05:15:24.834Z,8.58
2018-11-14T05:18:31.977Z,8.47
2018-11-14T05:21:37.431Z,8.64
2018-11-14T05:24:42.914Z,8.63
2018-11-14T05:27:48.808Z,8.71
2018-11-14T05:30:54.186Z,8.69
2018-11-14T05:33:59.689Z,8.61
2018-11-14T05:37:05.133Z,8.73
2018-11-14T05:40:13.935Z,8.80
2018-11-14T05:43:19.601Z,8.74
2018-11-14T05:46:24.984Z,8.81
2018-11-14T05:49:30.419Z,8.76
2018-11-14T05:52:35.842Z,8.72
2018-11-14T05:55:41.290Z,8.71
2018-11-14T05:58:46.650Z,8.63
2018-11-14T06:01:52.130Z,8.71
2018-11-14T06:04:57.592Z,8.71
2018-11-14T06:08:03.011Z,8.81
2018-11-14T06:11:08.426Z,8.76
2018-11-14T06:14:13.926Z,8.74
2018-11-14T06:17:19.305Z,8.70
2018-11-14T06:20:24.763Z,8.75
2018-11-14T06:23:30.739Z,8.73
2018-11-14T06:26:36.277Z,8.78
2018-11-14T06:29:41.741Z,8.83
2018-11-14T06:32:47.482Z,8.91
2018-11-14T06:35:52.858Z,8.85
2018-11-14T06:38:58.329Z,8.88
2018-11-14T06:42:03.800Z,8.93
2018-11-14T06:45:13.162Z,8.98
2018-11-14T06:48:18.530Z,8.87
2018-11-14T06:51:23.954Z,8.91
2018-11-14T06:54:29.385Z,8.96
2018-11-14T06:57:34.849Z,9.01
2018-11-14T07:00:40.217Z,8.97
2018-11-14T07:03:45.702Z,8.94
2018-11-14T07:06:51.081Z,8.98
2018-11-14T07:09:56.490Z,9.00
2018-11-14T07:13:05.788Z,8.96
2018-11-14T07:16:11.206Z,8.93
2018-11-14T07:19:16.593Z,8.97
2018-11-14T07:22:21.982Z,8.98
2018-11-14T07:25:27.849Z,9.04
2018-11-14T07:28:33.320Z,9.14
2018-11-14T07:31:38.759Z,9.17
2018-11-14T07:34:44.214Z,9.29
2018-11-14T07:38:53.281Z,9.26
2018-11-14T07:41:58.721Z,9.26
2018-11-14T07:45:04.204Z,9.30
2018-11-14T07:48:11.903Z,9.31
2018-11-14T07:51:17.509Z,9.23
2018-11-14T07:54:23.100Z,9.27
2018-11-14T07:57:28.694Z,9.31
2018-11-14T08:00:34.159Z,9.31
2018-11-14T08:03:39.656Z,9.35
2018-11-14T08:06:45.104Z,9.31
2018-11-14T08:09:51.081Z,9.31
2018-11-14T08:12:56.771Z,9.33
2018-11-14T08:16:02.899Z,9.38
2018-11-14T08:19:08.461Z,9.40
2018-11-14T08:22:14.043Z,9.45
2018-11-14T08:25:19.783Z,9.45
2018-11-14T08:28:25.746Z,9.50
2018-11-14T08:31:31.211Z,9.52
2018-11-14T08:34:36.675Z,9.55
2018-11-14T08:37:42.365Z,9.56
2018-11-14T08:40:48.255Z,9.61
2018-11-14T08:43:53.869Z,9.67
2018-11-14T08:46:59.371Z,9.76
2018-11-14T08:50:06.431Z,9.78
2018-11-14T08:53:13.806Z,9.90
2018-11-14T08:56:19.289Z,9.93
2018-11-14T08:59:24.811Z,9.88
2018-11-14T09:02:30.249Z,9.94
2018-11-14T09:05:35.719Z,9.92
2018-11-14T09:08:41.362Z,9.82
2018-11-14T09:11:47.112Z,9.96
2018-11-14T09:14:52.773Z,9.92
2018-11-14T09:17:58.465Z,9.94
2018-11-14T09:21:04.047Z,9.99
2018-11-14T09:24:09.523Z,9.91
2018-11-14T09:27:15.135Z,9.88
2018-11-14T09:30:22.778Z,9.91
2018-11-14T09:33:28.268Z,9.99
2018-11-14T09:36:33.747Z,10.01
2018-11-14T09:39:39.222Z,10.06
2018-11-14T09:42:44.730Z,10.09
2018-11-14T09:45:50.123Z,10.15
2018-11-14T09:48:55.552Z,10.18
2018-11-14T09:52:00.962Z,10.22
2018-11-14T09:55:08.543Z,10.02
2018-11-14T09:58:13.999Z,10.06
2018-11-14T10:01:19.398Z,10.14
2018-11-14T10:04:24.859Z,10.19
2018-11-14T10:07:30.333Z,10.36
2018-11-14T10:10:35.746Z,10.31
2018-11-14T10:13:41.202Z,10.46
2018-11-14T10:16:46.649Z,10.31
2018-11-14T10:19:52.047Z,10.28
2018-11-14T10:22:57.518Z,10.47
2018-11-14T10:26:02.970Z,10.52
2018-11-14T10:29:08.543Z,10.67
2018-11-14T10:32:14.045Z,10.76
2018-11-14T10:35:19.604Z,10.85
2018-11-14T10:38:25.071Z,10.82
2018-11-14T10:41:30.466Z,10.95
2018-11-14T10:44:35.935Z,10.93
2018-11-14T10:47:41.443Z,11.09
2018-11-14T10:50:46.948Z,11.11
2018-11-14T10:53:52.589Z,11.08
2018-11-14T10:56:58.411Z,11.14
2018-11-14T11:00:04.164Z,10.95
2018-11-14T11:03:14.719Z,10.98
2018-11-14T11:06:34.031Z,10.65
2018-11-14T11:09:44.499Z,10.71
2018-11-14T11:14:55.839Z,10.68
2018-11-14T11:18:03.037Z,10.79
2018-11-14T11:21:08.408Z,10.64
2018-11-14T11:24:14.661Z,10.74
2018-11-14T11:27:20.058Z,10.85
2018-11-14T11:30:25.442Z,10.81
2018-11-14T11:33:30.843Z,10.94
2018-11-14T11:36:36.278Z,10.85
2018-11-14T11:39:41.650Z,10.93
2018-11-14T11:42:47.051Z,10.92
2018-11-14T11:45:52.430Z,11.00
2018-11-14T11:48:57.838Z,10.83
2018-11-14T11:52:03.546Z,10.85
2018-11-14T11:55:08.995Z,10.81
2018-11-14T11:58:14.363Z,10.94
2018-11-14T12:01:19.746Z,10.95
2018-11-14T12:04:25.154Z,11.03
2018-11-14T12:07:30.498Z,11.15
2018-11-14T12:10:35.924Z,11.14
2018-11-14T12:13:41.585Z,11.17
2018-11-14T12:16:47.142Z,11.28
2018-11-14T12:19:52.527Z,11.30
2018-11-14T12:22:58.140Z,11.34
2018-11-14T12:26:03.525Z,11.25
2018-11-14T12:29:08.882Z,11.13
2018-11-14T12:32:14.278Z,11.34
2018-11-14T12:35:19.739Z,11.28
2018-11-14T12:38:25.309Z,11.40
2018-11-14T12:41:30.713Z,11.26
2018-11-14T12:44:36.077Z,11.30
2018-11-14T12:47:41.591Z,11.41
2018-11-14T12:50:46.973Z,11.27
2018-11-14T12:53:52.341Z,11.49
2018-11-14T12:56:57.726Z,11.44
2018-11-14T13:00:03.269Z,11.43
2018-11-14T13:03:08.829Z,11.46
2018-11-14T13:06:14.214Z,11.58
2018-11-14T13:09:19.573Z,11.55
2018-11-14T13:12:24.965Z,11.63
2018-11-14T13:15:30.333Z,11.68
2018-11-14T13:18:35.722Z,11.64
2018-11-14T13:21:44.604Z,11.60
2018-11-14T13:24:49.962Z,11.56
2018-11-14T13:27:55.742Z,11.56
2018-11-14T13:31:01.302Z,11.61
2018-11-14T13:34:07.098Z,11.68
2018-11-14T13:37:12.520Z,11.67
2018-11-14T13:40:17.930Z,11.55
2018-11-14T13:43:24.229Z,11.63
2018-11-14T13:46:29.616Z,11.46
2018-11-14T13:49:35.186Z,11.57
2018-11-14T13:52:40.775Z,11.56
2018-11-14T13:55:46.141Z,11.52
2018-11-14T13:58:51.506Z,11.35
2018-11-14T14:01:56.926Z,11.46
2018-11-14T14:05:02.435Z,11.36
2018-11-14T14:08:07.936Z,11.42
2018-11-14T14:11:13.470Z,11.32
2018-11-14T14:14:19.488Z,11.36
2018-11-14T14:17:24.942Z,11.26
2018-11-14T14:20:32.317Z,11.39
2018-11-14T14:23:42.626Z,11.57
2018-11-14T14:26:50.192Z,11.70
2018-11-14T14:29:55.597Z,11.74
2018-11-14T14:33:01.130Z,11.61
2018-11-14T14:36:07.442Z,11.65
2018-11-14T14:39:13.566Z,11.75
2018-11-14T14:42:18.963Z,11.76
2018-11-14T14:45:25.950Z,11.66
2018-11-14T14:48:31.434Z,11.73
2018-11-14T14:51:37.002Z,11.55
2018-11-14T14:54:42.427Z,11.63
2018-11-14T14:57:48.145Z,11.54
2018-11-14T15:00:53.995Z,11.50
2018-11-14T15:03:59.499Z,11.55
2018-11-14T15:07:05.934Z,11.60
2018-11-14T15:10:15.210Z,11.52
2018-11-14T15:13:20.585Z,11.52
2018-11-14T15:16:25.982Z,11.51
2018-11-14T15:19:31.346Z,11.53
2018-11-14T15:22:37.139Z,11.52
2018-11-14T15:25:42.678Z,11.30
2018-11-14T15:28:48.064Z,11.33
2018-11-14T15:31:53.651Z,11.30
2018-11-14T15:34:59.428Z,11.36
2018-11-14T15:38:05.448Z,11.31
2018-11-14T15:41:10.846Z,11.25
2018-11-14T15:44:16.604Z,11.37
2018-11-14T15:47:21.959Z,11.26
2018-11-14T15:50:28.949Z,11.25
2018-11-14T15:53:34.666Z,11.34
2018-11-14T15:56:40.044Z,11.44
2018-11-14T15:59:45.410Z,11.30
2018-11-14T16:02:50.842Z,11.30
2018-11-14T16:05:56.454Z,11.25
2018-11-14T16:09:01.841Z,11.20
2018-11-14T16:12:07.606Z,11.16
2018-11-14T16:15:14.151Z,11.17
2018-11-14T16:18:19.514Z,11.10
2018-11-14T16:21:24.918Z,11.26
2018-11-14T16:24:30.338Z,11.22
2018-11-14T16:27:35.918Z,11.30
2018-11-14T16:30:41.284Z,11.34
2018-11-14T16:33:46.678Z,11.38
2018-11-14T16:36:52.054Z,11.26
2018-11-14T16:39:57.445Z,11.17
2018-11-14T16:43:04.324Z,11.21
2018-11-14T16:46:09.738Z,11.07
2018-11-14T16:49:15.314Z,11.07
2018-11-14T16:52:20.709Z,11.10
2018-11-14T16:55:26.204Z,11.17
2018-11-14T16:58:31.797Z,11.22
2018-11-14T17:01:37.222Z,11.12
2018-11-14T17:04:42.657Z,11.17
2018-11-14T17:07:48.162Z,11.07
2018-11-14T17:10:53.598Z,11.16
2018-11-14T17:13:58.994Z,11.21
2018-11-14T17:17:04.438Z,11.35
2018-11-14T17:20:10.816Z,11.37
2018-11-14T17:23:16.258Z,11.38
2018-11-14T17:26:21.736Z,11.28
2018-11-14T17:29:27.253Z,11.26
2018-11-14T17:32:32.650Z,11.29
2018-11-14T17:35:38.046Z,11.35
2018-11-14T17:38:43.447Z,11.26
2018-11-14T17:41:48.946Z,11.34
2018-11-14T17:44:54.441Z,11.41
2018-11-14T17:48:00.147Z,11.28
2018-11-14T17:51:05.771Z,11.29
2018-11-14T17:54:11.191Z,11.37
2018-11-14T17:57:16.602Z,11.34
2018-11-14T18:00:23.417Z,11.37
2018-11-14T18:03:28.863Z,11.30
2018-11-14T18:06:34.243Z,11.38
2018-11-14T18:09:39.831Z,11.42
2018-11-14T18:12:46.477Z,11.34
2018-11-14T18:15:51.842Z,11.43
2018-11-14T18:18:57.201Z,11.44
2018-11-14T18:22:02.627Z,11.48
2018-11-14T18:25:08.399Z,11.33
2018-11-14T18:28:13.774Z,11.26
2018-11-14T18:31:19.245Z,11.28
2018-11-14T18:34:24.614Z,11.31
2018-11-14T18:37:30.051Z,11.37
2018-11-14T18:40:35.873Z,11.32
2018-11-14T18:43:41.272Z,11.37
2018-11-14T18:46:46.670Z,11.44
2018-11-14T18:49:52.102Z,11.40
2018-11-14T18:52:57.542Z,11.45
2018-11-14T18:56:02.895Z,11.37
2018-11-14T18:59:08.390Z,11.36
2018-11-14T19:02:13.807Z,11.28
2018-11-14T19:05:19.734Z,11.26
2018-11-14T19:08:25.144Z,11.18
2018-11-14T19:11:30.545Z,11.17
2018-11-14T19:14:35.945Z,11.07
2018-11-14T19:17:41.841Z,10.99
2018-11-14T19:20:47.226Z,10.85
2018-11-14T19:23:52.658Z,10.75
2018-11-14T19:26:58.069Z,10.72
2018-11-14T19:30:04.006Z,10.69
2018-11-14T19:33:09.520Z,10.64
2018-11-14T19:36:15.220Z,10.62
2018-11-14T19:39:20.845Z,10.50
2018-11-14T19:42:28.199Z,10.54
2018-11-14T19:45:38.391Z,10.54
2018-11-14T19:48:47.909Z,10.55
2018-11-14T19:51:56.574Z,10.56
2018-11-14T19:55:02.239Z,10.55
2018-11-14T19:58:09.421Z,10.59
2018-11-14T20:01:27.167Z,10.29
2018-11-14T20:04:32.889Z,10.23
2018-11-14T20:07:39.062Z,10.35
2018-11-14T20:10:44.564Z,10.31
2018-11-14T20:13:53.335Z,10.37
2018-11-14T20:17:00.937Z,10.29
2018-11-14T20:20:09.316Z,10.36
2018-11-14T20:23:15.003Z,10.40
2018-11-14T20:26:20.813Z,10.40
2018-11-14T20:29:26.693Z,10.41
2018-11-14T20:32:32.090Z,10.38
2018-11-14T20:35:37.906Z,10.40
2018-11-14T20:38:43.463Z,10.33
2018-11-14T20:41:49.085Z,10.32
2018-11-14T20:44:54.815Z,10.20
2018-11-14T20:48:00.498Z,10.20
2018-11-14T20:51:07.250Z,10.07
2018-11-14T20:54:12.842Z,10.04
2018-11-14T20:57:20.346Z,9.96
2018-11-14T21:00:29.909Z,9.74
2018-11-14T21:03:35.823Z,9.78
2018-11-14T21:06:41.351Z,9.89
2018-11-14T21:09:46.982Z,9.92
2018-11-14T21:12:53.444Z,9.87
2018-11-14T21:15:58.938Z,9.88
2018-11-14T21:19:04.629Z,9.86
2018-11-14T21:22:13.889Z,9.91
2018-11-14T21:25:20.422Z,9.88
2018-11-14T21:28:26.181Z,9.80
2018-11-14T21:31:33.463Z,9.75
2018-11-14T21:34:52.258Z,9.80
2018-11-14T21:38:00.139Z,9.64
2018-11-14T21:41:05.651Z,9.60
2018-11-14T21:44:11.423Z,9.77
2018-11-14T21:47:17.062Z,9.77
2018-11-14T21:50:23.721Z,9.76
2018-11-14T21:53:29.394Z,9.55
2018-11-14T21:56:34.953Z,9.46
2018-11-14T21:59:40.470Z,9.57
2018-11-14T22:02:48.706Z,9.58
2018-11-14T22:05:54.404Z,9.58
2018-11-14T22:08:59.927Z,9.49
2018-11-14T22:12:05.535Z,9.52
2018-11-14T22:15:11.959Z,9.60
2018-11-14T22:18:17.573Z,9.60
2018-11-14T22:21:23.047Z,9.56
2018-11-14T22:24:28.850Z,9.49
2018-11-14T22:27:34.997Z,9.35
2018-11-14T22:30:40.703Z,9.44
2018-11-14T22:33:46.268Z,9.44
2018-11-14T22:36:52.300Z,9.49
2018-11-14T22:39:58.019Z,9.42
2018-11-14T22:43:06.791Z,9.46
2018-11-14T22:46:12.463Z,9.51
2018-11-14T22:49:18.121Z,9.55
2018-11-14T22:52:23.768Z,9.49
2018-11-14T22:55:29.618Z,9.48
2018-11-14T22:58:36.191Z,9.51
2018-11-14T23:01:42.092Z,9.55
2018-11-14T23:04:47.886Z,9.61
2018-11-14T23:07:54.409Z,9.59
2018-11-14T23:11:00.108Z,9.54
2018-11-14T23:14:06.326Z,9.62
2018-11-14T23:17:11.764Z,9.63
2018-11-14T23:20:17.793Z,9.54
2018-11-14T23:23:23.538Z,9.52
2018-11-14T23:26:29.846Z,9.54
2018-11-14T23:29:35.900Z,9.51
2018-11-14T23:32:42.957Z,9.52
2018-11-14T23:35:48.628Z,9.47
2018-11-14T23:38:54.466Z,9.25
2018-11-14T23:42:00.084Z,9.30
2018-11-14T23:45:07.583Z,9.43
2018-11-14T23:48:13.055Z,9.45
2018-11-14T23:51:18.567Z,9.27
2018-11-14T23:54:24.378Z,9.29
2018-11-14T23:57:29.900Z,9.26
